Time;durP1;ratioP1;P1;durP2;ratioP2;P2;SDS_P1;SDS_P2;PMS_P1;PMS_P2;Temp;Humidity;BMP_temperature;BMP_pressure;BME280_temperature;BME280_humidity;BME280_pressure;Samples;Min_cycle;Max_cycle;Signal;HPM_P1;HPM_P2
2022/06/27 00:02:07;;;;;;;8.83;8.03;;;18.00;99.90;;;;;;5034279;28;20235;-65
2022/06/27 00:04:32;;;;;;;8.20;7.40;;;18.00;99.90;;;;;;5034496;28;20202;-65
2022/06/27 00:06:58;;;;;;;8.63;7.93;;;18.00;99.90;;;;;;5034478;28;20188;-65
2022/06/27 00:09:24;;;;;;;9.20;7.60;;;18.00;99.90;;;;;;5034525;28;20731;-66
2022/06/27 00:11:49;;;;;;;8.87;8.07;;;18.10;99.90;;;;;;5034285;28;20525;-65
2022/06/27 00:14:15;;;;;;;7.73;7.17;;;18.10;99.90;;;;;;5034404;28;20187;-65
2022/06/27 00:16:41;;;;;;;8.33;7.73;;;18.20;99.90;;;;;;5034303;28;20190;-65
2022/06/27 00:19:06;;;;;;;8.23;7.53;;;18.20;99.90;;;;;;5033123;28;20183;-66
2022/06/27 00:21:32;;;;;;;8.27;7.57;;;18.20;99.90;;;;;;5034118;28;20179;-65
2022/06/27 00:23:57;;;;;;;8.43;7.63;;;18.30;99.90;;;;;;5034213;28;20203;-65
2022/06/27 00:26:23;;;;;;;10.07;8.50;;;18.30;99.90;;;;;;5034037;28;20267;-65
2022/06/27 00:28:49;;;;;;;8.57;7.67;;;18.30;99.90;;;;;;5034347;28;20198;-65
2022/06/27 00:31:14;;;;;;;8.30;7.60;;;18.30;99.90;;;;;;5033736;28;20240;-65
2022/06/27 00:33:40;;;;;;;9.63;7.60;;;18.30;99.90;;;;;;5032633;28;20257;-65
2022/06/27 00:36:06;;;;;;;8.07;7.27;;;18.30;99.90;;;;;;5032669;28;20172;-65
2022/06/27 00:38:32;;;;;;;8.33;7.53;;;18.40;99.90;;;;;;5034137;28;20186;-65
2022/06/27 00:40:57;;;;;;;7.73;7.00;;;18.40;99.90;;;;;;5033863;28;20191;-65
2022/06/27 00:43:23;;;;;;;8.00;6.73;;;18.40;99.90;;;;;;5032984;28;20203;-65
2022/06/27 00:45:49;;;;;;;8.17;7.57;;;18.40;99.90;;;;;;5024111;28;20299;-65
2022/06/27 00:48:14;;;;;;;7.60;6.80;;;18.30;99.90;;;;;;5013941;28;20180;-64
2022/06/27 00:50:40;;;;;;;9.53;7.10;;;18.30;99.90;;;;;;5020767;28;20281;-65
2022/06/27 00:53:08;;;;;;;10.23;6.80;;;18.30;99.90;;;;;;5033674;28;20245;-65
2022/06/27 00:55:34;;;;;;;7.77;7.17;;;18.20;99.90;;;;;;5033207;28;20179;-65
2022/06/27 00:58:01;;;;;;;7.97;6.83;;;18.10;99.90;;;;;;5033614;28;20168;-65
2022/06/27 01:00:27;;;;;;;7.70;7.00;;;18.10;99.90;;;;;;5033337;28;20345;-66
2022/06/27 01:02:52;;;;;;;8.53;7.73;;;18.10;99.90;;;;;;5032372;28;20548;-65
2022/06/27 01:05:18;;;;;;;8.37;7.50;;;18.00;99.90;;;;;;5032907;28;20195;-65
2022/06/27 01:07:44;;;;;;;7.83;7.03;;;17.90;99.90;;;;;;5032273;28;20293;-65
2022/06/27 01:10:10;;;;;;;9.33;7.50;;;17.90;99.90;;;;;;5033070;28;20290;-65
2022/06/27 01:12:40;;;;;;;9.00;7.23;;;17.80;99.90;;;;;;5033519;28;20199;-65
2022/06/27 01:15:07;;;;;;;9.13;8.30;;;17.80;99.90;;;;;;5032869;28;20176;-65
2022/06/27 01:17:34;;;;;;;8.53;7.80;;;17.70;99.90;;;;;;5033276;28;20179;-65
2022/06/27 01:20:00;;;;;;;10.07;8.37;;;17.70;99.90;;;;;;5033029;28;20198;-65
2022/06/27 01:22:26;;;;;;;8.47;7.63;;;17.70;99.90;;;;;;5033313;28;20684;-65
2022/06/27 01:24:51;;;;;;;8.90;8.10;;;17.60;99.90;;;;;;5032829;28;20180;-65
2022/06/27 01:27:17;;;;;;;9.97;8.97;;;17.60;99.90;;;;;;5033083;28;20203;-65
2022/06/27 01:29:43;;;;;;;9.30;7.73;;;17.50;99.90;;;;;;5032786;28;20294;-65
2022/06/27 01:32:08;;;;;;;10.93;9.30;;;17.50;99.90;;;;;;5032836;28;20191;-65
2022/06/27 01:34:35;;;;;;;8.60;7.90;;;17.50;99.90;;;;;;5032674;28;20250;-65
2022/06/27 01:37:01;;;;;;;9.17;8.17;;;17.50;99.90;;;;;;5032544;28;20637;-65
2022/06/27 01:39:27;;;;;;;10.97;8.10;;;17.50;99.90;;;;;;5032609;28;20667;-65
2022/06/27 01:41:58;;;;;;;10.73;8.40;;;17.40;99.90;;;;;;5032856;28;20206;-65
2022/06/27 01:44:26;;;;;;;9.40;8.40;;;17.50;99.90;;;;;;5032160;28;20195;-65
2022/06/27 01:46:54;;;;;;;8.90;7.87;;;17.50;99.90;;;;;;5032884;28;20186;-65
2022/06/27 01:49:20;;;;;;;9.83;8.50;;;17.60;99.90;;;;;;5032185;28;20191;-65
2022/06/27 01:51:48;;;;;;;9.63;7.83;;;17.70;99.90;;;;;;5032663;28;20183;-65
2022/06/27 01:54:17;;;;;;;8.10;7.17;;;17.80;99.90;;;;;;5031999;28;20183;-64
2022/06/27 01:56:49;;;;;;;8.20;7.40;;;17.80;99.90;;;;;;5031712;28;20206;-65
2022/06/27 01:59:15;;;;;;;8.40;7.47;;;17.90;99.90;;;;;;5032305;28;20266;-65
2022/06/27 02:01:42;;;;;;;8.17;7.43;;;17.90;99.90;;;;;;5032505;28;20653;-65
2022/06/27 02:04:09;;;;;;;8.90;8.07;;;17.80;99.90;;;;;;5031756;28;20183;-66
2022/06/27 02:06:34;;;;;;;8.33;7.60;;;17.80;99.90;;;;;;5031131;28;20183;-65
2022/06/27 02:09:04;;;;;;;9.20;8.50;;;17.70;99.90;;;;;;5032070;28;20523;-65
2022/06/27 02:11:30;;;;;;;10.93;8.17;;;17.70;99.90;;;;;;5032464;28;20179;-65
2022/06/27 02:13:57;;;;;;;8.90;8.03;;;17.60;99.90;;;;;;5031551;28;20202;-65
2022/06/27 02:16:23;;;;;;;8.57;7.83;;;17.60;99.90;;;;;;5031983;28;20191;-65
2022/06/27 02:18:49;;;;;;;9.90;8.77;;;17.60;99.90;;;;;;5032258;28;20176;-65
2022/06/27 02:21:24;;;;;;;9.30;8.40;;;17.60;99.90;;;;;;5032120;28;20178;-65
2022/06/27 02:23:50;;;;;;;8.57;7.87;;;17.60;99.90;;;;;;5031351;28;20587;-65
2022/06/27 02:26:18;;;;;;;12.70;8.87;;;17.60;99.90;;;;;;5033042;28;20179;-70
2022/06/27 02:28:44;;;;;;;9.90;8.60;;;17.60;99.90;;;;;;5033329;28;20184;-70
2022/06/27 02:31:10;;;;;;;10.50;9.10;;;17.60;99.90;;;;;;5033403;28;20526;-69
2022/06/27 02:33:42;;;;;;;10.57;9.57;;;17.60;99.90;;;;;;5032993;28;20210;-68
2022/06/27 02:36:10;;;;;;;10.07;9.17;;;17.70;99.90;;;;;;5032928;28;20590;-70
2022/06/27 02:38:37;;;;;;;10.97;9.97;;;17.70;99.90;;;;;;5032998;28;20541;-69
2022/06/27 02:41:05;;;;;;;10.53;9.47;;;17.70;99.90;;;;;;5033409;28;20649;-68
2022/06/27 02:43:35;;;;;;;11.23;10.23;;;17.80;99.90;;;;;;5032789;28;20218;-69
2022/06/27 02:46:01;;;;;;;12.33;10.70;;;17.80;99.90;;;;;;5031834;28;20182;-71
2022/06/27 02:48:30;;;;;;;11.70;10.37;;;17.80;99.90;;;;;;5012261;28;20550;-68
2022/06/27 02:50:57;;;;;;;12.17;10.07;;;17.80;99.90;;;;;;5019523;28;20222;-67
2022/06/27 02:53:31;;;;;;;12.47;11.17;;;17.80;99.90;;;;;;5032998;28;20200;-68
2022/06/27 02:56:01;;;;;;;12.03;10.43;;;17.80;99.90;;;;;;5031270;28;20205;-68
2022/06/27 02:58:51;;;;;;;12.43;11.23;;;17.90;99.90;;;;;;5033124;28;20218;-67
2022/06/27 03:01:19;;;;;;;13.53;10.20;;;18.00;99.90;;;;;;5020259;28;20210;-68
2022/06/27 03:03:47;;;;;;;11.30;10.23;;;17.90;99.90;;;;;;5012865;28;20230;-68
2022/06/27 03:06:13;;;;;;;13.33;10.03;;;17.90;99.90;;;;;;5022039;28;20282;-67
2022/06/27 03:08:45;;;;;;;12.70;10.40;;;17.80;99.90;;;;;;5032768;28;20180;-67
2022/06/27 03:11:28;;;;;;;11.37;10.23;;;17.80;99.90;;;;;;5032306;28;20183;-67
2022/06/27 03:13:55;;;;;;;12.63;11.30;;;17.80;99.90;;;;;;5032312;28;20673;-71
2022/06/27 03:16:22;;;;;;;13.10;10.47;;;17.90;99.90;;;;;;5032759;28;20183;-68
2022/06/27 03:18:49;;;;;;;11.50;10.17;;;18.00;99.90;;;;;;5032886;28;20175;-67
2022/06/27 03:21:17;;;;;;;13.33;10.57;;;17.90;99.90;;;;;;5032580;28;20190;-70
2022/06/27 03:23:47;;;;;;;14.60;10.70;;;18.00;99.90;;;;;;5032233;28;20206;-70
2022/06/27 03:26:13;;;;;;;11.93;10.77;;;18.00;99.90;;;;;;5031152;28;20187;-67
2022/06/27 03:28:39;;;;;;;11.40;10.17;;;18.00;99.90;;;;;;5031244;28;20171;-68
2022/06/27 03:31:06;;;;;;;12.63;10.93;;;18.00;99.90;;;;;;5031503;28;20218;-67
2022/06/27 03:33:31;;;;;;;12.90;11.17;;;18.00;99.90;;;;;;5031201;28;20210;-69
2022/06/27 03:35:57;;;;;;;13.30;10.40;;;18.00;99.90;;;;;;5031332;28;20179;-68
2022/06/27 03:38:23;;;;;;;13.83;10.97;;;18.00;99.90;;;;;;5031327;28;20195;-69
2022/06/27 03:40:48;;;;;;;13.43;11.77;;;18.00;99.90;;;;;;5032240;28;20184;-67
2022/06/27 03:43:14;;;;;;;13.13;11.70;;;18.00;99.90;;;;;;5032368;28;20231;-67
2022/06/27 03:45:40;;;;;;;13.80;11.67;;;18.00;99.90;;;;;;5032255;28;20625;-69
2022/06/27 03:48:06;;;;;;;12.30;11.10;;;17.90;99.90;;;;;;5032820;28;20186;-69
2022/06/27 03:50:32;;;;;;;13.23;11.23;;;17.90;99.90;;;;;;5032361;28;20234;-68
2022/06/27 03:52:58;;;;;;;18.67;11.00;;;17.90;99.90;;;;;;5031730;28;20207;-65
2022/06/27 03:55:24;;;;;;;14.27;11.50;;;17.90;99.90;;;;;;5030716;28;20629;-65
2022/06/27 03:57:55;;;;;;;12.50;11.20;;;17.90;99.90;;;;;;5030832;28;20183;-64
2022/06/27 04:00:23;;;;;;;12.17;11.07;;;18.00;99.90;;;;;;5030858;28;20257;-65
2022/06/27 04:02:49;;;;;;;12.73;11.30;;;18.00;99.90;;;;;;5029902;28;20195;-65
2022/06/27 04:05:15;;;;;;;12.77;11.50;;;18.10;99.90;;;;;;5030689;28;20542;-65
2022/06/27 04:07:41;;;;;;;14.97;12.07;;;18.00;99.90;;;;;;5030733;28;20175;-65
2022/06/27 04:10:08;;;;;;;13.20;11.90;;;18.00;99.90;;;;;;5030491;28;20211;-65
2022/06/27 04:12:34;;;;;;;13.43;12.13;;;18.00;99.90;;;;;;5030909;28;20704;-65
2022/06/27 04:15:00;;;;;;;15.27;13.07;;;18.10;99.90;;;;;;5030403;28;20172;-65
2022/06/27 04:17:26;;;;;;;15.60;12.87;;;18.10;99.90;;;;;;5030878;28;20710;-65
2022/06/27 04:19:52;;;;;;;16.53;13.43;;;18.10;99.90;;;;;;5032848;28;20191;-65
2022/06/27 04:22:17;;;;;;;16.00;12.93;;;18.20;99.90;;;;;;5034575;28;20261;-65
2022/06/27 04:24:43;;;;;;;15.23;13.00;;;18.20;99.90;;;;;;5033871;28;20187;-65
2022/06/27 04:27:09;;;;;;;14.87;11.83;;;18.20;99.90;;;;;;5034255;28;20182;-66
2022/06/27 04:29:35;;;;;;;14.53;12.00;;;18.30;99.90;;;;;;5032926;28;20681;-65
2022/06/27 04:32:00;;;;;;;14.13;12.73;;;18.20;99.90;;;;;;5033413;28;20202;-66
2022/06/27 04:34:27;;;;;;;13.87;11.77;;;18.20;99.90;;;;;;5033986;28;20599;-65
2022/06/27 04:36:53;;;;;;;15.30;12.97;;;18.30;99.90;;;;;;5033997;28;20211;-65
2022/06/27 04:39:20;;;;;;;14.73;12.77;;;18.30;99.90;;;;;;5034281;28;20183;-65
2022/06/27 04:41:47;;;;;;;14.30;12.90;;;18.40;99.90;;;;;;5034161;28;20577;-65
2022/06/27 04:44:13;;;;;;;14.07;12.10;;;18.40;99.90;;;;;;5033363;28;20190;-66
2022/06/27 04:46:41;;;;;;;11.67;10.53;;;18.40;99.90;;;;;;5034113;28;20264;-65
2022/06/27 04:49:07;;;;;;;12.43;11.07;;;18.50;99.90;;;;;;5033977;28;20179;-65
2022/06/27 04:51:34;;;;;;;16.73;12.50;;;18.50;99.90;;;;;;5033696;28;20333;-65
2022/06/27 04:54:00;;;;;;;16.30;12.17;;;18.50;99.90;;;;;;5033354;28;20176;-65
2022/06/27 04:56:26;;;;;;;15.30;11.73;;;18.50;99.90;;;;;;5033653;28;20182;-65
2022/06/27 04:58:52;;;;;;;12.40;11.20;;;18.60;99.90;;;;;;5033797;28;20194;-65
2022/06/27 05:01:18;;;;;;;13.83;11.87;;;18.70;99.90;;;;;;5033804;28;20624;-65
2022/06/27 05:03:43;;;;;;;13.27;10.50;;;18.80;99.90;;;;;;5033019;28;20242;-65
2022/06/27 05:06:09;;;;;;;11.40;10.10;;;18.90;99.90;;;;;;5033388;28;20175;-65
2022/06/27 05:08:37;;;;;;;11.57;10.40;;;19.00;99.90;;;;;;5033323;28;20194;-65
2022/06/27 05:11:03;;;;;;;11.97;10.90;;;19.10;99.90;;;;;;5033345;28;20199;-65
2022/06/27 05:13:29;;;;;;;11.53;10.43;;;19.30;99.90;;;;;;5033013;28;20203;-65
2022/06/27 05:15:55;;;;;;;11.93;10.37;;;19.30;99.90;;;;;;5033434;28;20263;-65
2022/06/27 05:18:21;;;;;;;11.60;9.63;;;19.40;99.90;;;;;;5033114;28;20612;-65
2022/06/27 05:20:47;;;;;;;12.67;10.83;;;19.40;99.90;;;;;;5033365;28;20204;-65
2022/06/27 05:23:13;;;;;;;12.23;10.03;;;19.40;99.90;;;;;;5032867;28;20250;-66
2022/06/27 05:25:38;;;;;;;12.23;11.13;;;19.40;99.90;;;;;;5032973;28;20262;-65
2022/06/27 05:28:04;;;;;;;10.30;9.50;;;19.50;99.90;;;;;;5032990;28;20192;-65
2022/06/27 05:30:30;;;;;;;12.70;10.10;;;19.40;99.90;;;;;;5031998;28;20242;-65
2022/06/27 05:32:56;;;;;;;10.67;9.67;;;19.40;99.90;;;;;;5031530;28;20600;-65
2022/06/27 05:35:22;;;;;;;11.30;10.17;;;19.40;99.90;;;;;;5032776;28;20171;-65
2022/06/27 05:37:48;;;;;;;11.17;10.17;;;19.30;99.90;;;;;;5032862;28;20181;-65
2022/06/27 05:40:14;;;;;;;11.53;10.03;;;19.30;99.90;;;;;;5032833;28;20262;-65
2022/06/27 05:42:40;;;;;;;12.17;10.07;;;19.40;99.90;;;;;;5032668;28;20687;-65
2022/06/27 05:45:07;;;;;;;11.77;10.57;;;19.50;99.90;;;;;;5031607;28;20195;-65
2022/06/27 05:47:33;;;;;;;11.30;10.13;;;19.60;99.90;;;;;;5032761;28;20191;-65
2022/06/27 05:50:03;;;;;;;11.63;10.40;;;19.70;99.90;;;;;;5032755;28;20203;-65
2022/06/27 05:52:29;;;;;;;11.33;10.10;;;19.80;99.90;;;;;;5032278;28;20194;-66
2022/06/27 05:54:55;;;;;;;11.33;9.87;;;19.70;99.90;;;;;;5032447;28;20175;-65
2022/06/27 05:57:21;;;;;;;10.63;9.73;;;19.60;99.90;;;;;;5032460;28;20190;-66
2022/06/27 05:59:47;;;;;;;11.33;10.10;;;19.50;99.90;;;;;;5032572;28;20181;-66
2022/06/27 06:02:13;;;;;;;12.40;11.13;;;19.40;99.90;;;;;;5032550;28;20286;-66
2022/06/27 06:04:38;;;;;;;11.20;10.20;;;19.50;99.90;;;;;;5032086;28;20211;-66
2022/06/27 06:07:04;;;;;;;10.30;9.20;;;19.60;99.90;;;;;;5032536;28;20183;-66
2022/06/27 06:09:32;;;;;;;10.00;9.20;;;19.60;99.90;;;;;;5032391;28;20537;-65
2022/06/27 06:11:59;;;;;;;12.40;11.40;;;19.80;99.90;;;;;;5032395;28;20187;-65
2022/06/27 06:14:24;;;;;;;11.10;10.00;;;19.90;99.90;;;;;;5031707;28;20179;-65
2022/06/27 06:16:51;;;;;;;12.87;11.57;;;20.00;99.90;;;;;;5032401;28;20540;-66
2022/06/27 06:19:18;;;;;;;11.53;9.87;;;20.00;99.90;;;;;;5031846;28;20211;-65
2022/06/27 06:21:43;;;;;;;12.93;11.63;;;20.20;99.90;;;;;;5031982;28;20183;-66
2022/06/27 06:24:09;;;;;;;11.90;10.87;;;20.30;99.90;;;;;;5031952;28;20225;-65
2022/06/27 06:26:35;;;;;;;11.80;10.60;;;20.40;99.90;;;;;;5031687;28;20187;-66
2022/06/27 06:29:11;;;;;;;10.87;9.77;;;20.50;99.90;;;;;;5031911;28;20175;-65
2022/06/27 06:31:44;;;;;;;11.90;10.73;;;20.40;99.90;;;;;;5031051;28;20167;-65
2022/06/27 06:34:11;;;;;;;10.90;10.00;;;20.20;99.90;;;;;;5031442;28;20218;-65
2022/06/27 06:36:38;;;;;;;12.83;11.80;;;20.10;99.90;;;;;;5032021;28;20172;-66
2022/06/27 06:39:05;;;;;;;10.50;9.53;;;20.10;99.90;;;;;;5031607;28;20175;-65
2022/06/27 06:41:31;;;;;;;10.70;9.77;;;20.00;99.90;;;;;;5030270;28;20262;-65
2022/06/27 06:43:59;;;;;;;12.67;9.47;;;19.90;99.90;;;;;;5031412;28;20229;-64
2022/06/27 06:46:25;;;;;;;10.27;9.37;;;19.70;99.90;;;;;;5011893;28;20267;-65
2022/06/27 06:48:54;;;;;;;11.53;10.53;;;19.70;99.90;;;;;;5012052;28;20227;-64
2022/06/27 06:51:20;;;;;;;11.77;10.60;;;19.80;99.90;;;;;;5025949;28;20559;-64
2022/06/27 06:53:46;;;;;;;10.87;9.97;;;19.60;99.90;;;;;;5031317;28;20191;-65
2022/06/27 06:56:12;;;;;;;10.73;9.80;;;19.60;99.90;;;;;;5031329;28;20187;-65
2022/06/27 06:58:38;;;;;;;12.43;11.00;;;19.70;99.90;;;;;;5031773;28;20210;-65
2022/06/27 07:01:05;;;;;;;12.33;9.77;;;19.70;99.90;;;;;;5031370;28;20181;-65
2022/06/27 07:03:31;;;;;;;12.87;11.87;;;19.90;99.90;;;;;;5031225;28;20191;-65
2022/06/27 07:05:57;;;;;;;13.20;12.10;;;20.10;99.90;;;;;;5031160;28;20211;-66
2022/06/27 07:08:24;;;;;;;11.73;10.73;;;20.10;99.90;;;;;;5031358;28;20256;-65
2022/06/27 07:10:49;;;;;;;12.23;11.17;;;20.20;99.90;;;;;;5029942;28;20214;-65
2022/06/27 07:13:15;;;;;;;11.60;10.37;;;20.20;99.90;;;;;;5031801;28;20191;-65
2022/06/27 07:15:43;;;;;;;16.13;14.83;;;20.20;99.90;;;;;;5031834;28;20171;-65
2022/06/27 07:18:09;;;;;;;10.50;9.57;;;20.30;99.90;;;;;;5031302;28;20176;-65
2022/06/27 07:20:35;;;;;;;10.20;9.30;;;20.50;99.90;;;;;;5031130;28;20175;-64
2022/06/27 07:23:01;;;;;;;11.40;10.60;;;20.70;99.90;;;;;;5031133;28;20210;-65
2022/06/27 07:25:27;;;;;;;10.53;9.63;;;20.80;99.90;;;;;;5030586;28;20530;-65
2022/06/27 07:27:53;;;;;;;10.37;9.53;;;21.00;99.90;;;;;;5031395;28;20217;-65
2022/06/27 07:30:20;;;;;;;12.20;11.07;;;21.00;99.90;;;;;;5014700;28;20681;-64
2022/06/27 07:32:46;;;;;;;11.63;10.53;;;20.90;99.90;;;;;;5011831;28;20198;-64
2022/06/27 07:35:13;;;;;;;13.10;11.90;;;20.90;99.90;;;;;;5025865;28;20180;-64
2022/06/27 07:37:45;;;;;;;11.43;10.33;;;20.90;99.90;;;;;;5030311;28;20233;-64
2022/06/27 07:40:11;;;;;;;12.07;11.07;;;21.00;99.90;;;;;;5030770;28;20195;-64
2022/06/27 07:42:37;;;;;;;11.07;10.20;;;21.20;99.90;;;;;;5030987;28;20217;-64
2022/06/27 07:45:04;;;;;;;14.70;13.40;;;21.40;99.90;;;;;;5030536;28;20628;-64
2022/06/27 07:47:30;;;;;;;14.23;12.93;;;21.40;99.90;;;;;;5031028;28;20214;-64
2022/06/27 07:49:55;;;;;;;10.50;9.60;;;21.40;99.90;;;;;;5030653;28;20239;-64
2022/06/27 07:52:21;;;;;;;9.30;8.50;;;21.60;99.90;;;;;;5030656;28;20506;-64
2022/06/27 07:54:48;;;;;;;10.82;9.93;;;21.90;99.90;;;;;;5032906;28;20229;-64
2022/06/27 07:57:14;;;;;;;10.50;9.47;;;22.30;99.90;;;;;;5034540;28;20250;-64
2022/06/27 07:59:40;;;;;;;9.73;8.90;;;22.60;99.90;;;;;;5034618;28;20198;-64
2022/06/27 08:02:07;;;;;;;9.25;8.40;;;22.80;99.90;;;;;;5034462;28;20542;-64
2022/06/27 08:04:36;;;;;;;9.45;8.60;;;22.60;99.90;;;;;;5034129;28;20179;-64
2022/06/27 08:07:02;;;;;;;10.80;9.93;;;22.30;99.90;;;;;;5034711;28;20199;-64
2022/06/27 08:09:29;;;;;;;9.70;8.80;;;21.90;99.90;;;;;;5034089;28;20212;-64
2022/06/27 08:11:55;;;;;;;10.80;9.83;;;21.70;99.90;;;;;;5034470;28;20191;-64
2022/06/27 08:14:20;;;;;;;11.37;10.37;;;21.50;99.90;;;;;;5033719;28;20702;-64
2022/06/27 08:16:49;;;;;;;12.10;10.90;;;21.20;99.90;;;;;;5033197;28;20566;-64
2022/06/27 08:19:15;;;;;;;12.53;11.53;;;21.10;99.90;;;;;;5034003;28;20171;-64
2022/06/27 08:21:43;;;;;;;12.13;11.13;;;21.10;99.90;;;;;;5034114;28;20183;-64
2022/06/27 08:24:11;;;;;;;12.77;10.00;;;21.10;99.90;;;;;;5033581;28;20203;-64
2022/06/27 08:26:38;;;;;;;12.67;11.47;;;21.30;99.90;;;;;;5034481;28;20176;-64
2022/06/27 08:29:05;;;;;;;11.40;10.40;;;21.30;99.90;;;;;;5033743;28;20226;-65
2022/06/27 08:31:33;;;;;;;12.43;11.33;;;21.20;99.90;;;;;;5034195;28;20254;-64
2022/06/27 08:34:03;;;;;;;10.73;9.63;;;21.10;99.90;;;;;;5033571;28;20238;-65
2022/06/27 08:36:31;;;;;;;13.00;11.80;;;20.90;99.90;;;;;;5034051;28;20179;-65
2022/06/27 08:38:57;;;;;;;15.60;14.40;;;20.60;99.90;;;;;;5033851;28;20245;-65
2022/06/27 08:41:23;;;;;;;11.97;10.90;;;20.50;99.90;;;;;;5034050;28;20183;-65
2022/06/27 08:43:54;;;;;;;11.60;10.40;;;20.30;99.90;;;;;;5033401;28;20727;-65
2022/06/27 08:46:20;;;;;;;12.40;11.23;;;20.20;99.90;;;;;;5033770;28;20591;-65
2022/06/27 08:48:47;;;;;;;12.43;11.20;;;20.20;99.90;;;;;;5033727;28;20183;-64
2022/06/27 08:51:13;;;;;;;11.53;10.43;;;20.00;99.90;;;;;;5033523;28;20242;-65
2022/06/27 08:53:41;;;;;;;13.87;11.40;;;20.00;99.90;;;;;;5033325;28;20279;-65
2022/06/27 08:56:10;;;;;;;11.23;10.23;;;19.90;99.90;;;;;;5033638;28;20194;-64
2022/06/27 08:58:37;;;;;;;12.70;11.27;;;19.80;99.90;;;;;;5033578;28;20204;-65
2022/06/27 09:01:04;;;;;;;12.07;10.90;;;19.80;99.90;;;;;;5033654;28;20175;-65
2022/06/27 09:03:30;;;;;;;13.53;12.27;;;19.80;99.90;;;;;;5033225;28;20575;-65
2022/06/27 09:05:57;;;;;;;11.37;10.17;;;19.80;99.90;;;;;;5033064;28;20176;-65
2022/06/27 09:08:33;;;;;;;12.13;11.13;;;19.90;99.90;;;;;;5032986;28;20245;-64
2022/06/27 09:11:00;;;;;;;10.80;9.90;;;20.00;99.90;;;;;;5033601;28;20206;-65
2022/06/27 09:13:27;;;;;;;11.27;10.20;;;20.20;99.90;;;;;;5032781;28;20679;-65
2022/06/27 09:15:53;;;;;;;11.33;10.03;;;20.40;99.90;;;;;;5033449;28;20175;-65
2022/06/27 09:18:21;;;;;;;10.00;8.97;;;20.40;99.90;;;;;;5032952;28;20541;-66
2022/06/27 09:20:47;;;;;;;10.70;9.20;;;20.50;99.90;;;;;;5033466;28;20301;-65
2022/06/27 09:26:39;;;;;;;15.57;14.37;;;20.60;99.90;;;;;;5010295;28;20611;-65
2022/06/27 09:29:11;;;;;;;11.67;10.67;;;20.60;99.90;;;;;;5032607;28;20266;-65
2022/06/27 09:31:38;;;;;;;10.50;9.33;;;20.80;99.90;;;;;;5033048;28;20191;-65
2022/06/27 09:34:19;;;;;;;11.13;10.03;;;21.00;99.90;;;;;;5032203;28;20167;-65
2022/06/27 09:36:55;;;;;;;9.63;8.83;;;21.20;99.90;;;;;;5032896;28;20191;-65
2022/06/27 09:39:36;;;;;;;11.07;10.07;;;21.50;99.90;;;;;;5032541;28;20283;-65
2022/06/27 09:42:10;;;;;;;10.57;9.57;;;21.60;99.90;;;;;;5032784;28;20203;-65
2022/06/27 09:44:45;;;;;;;11.33;9.80;;;21.80;99.90;;;;;;5032278;28;20198;-65
2022/06/27 09:47:18;;;;;;;11.10;10.10;;;22.00;99.90;;;;;;5032561;28;20183;-65
2022/06/27 09:49:50;;;;;;;12.03;10.83;;;22.20;99.90;;;;;;5032393;28;20746;-65
2022/06/27 09:52:18;;;;;;;11.47;10.37;;;22.30;99.90;;;;;;5032598;28;20191;-65
2022/06/27 09:54:46;;;;;;;9.90;9.00;;;22.30;99.90;;;;;;5032068;28;20226;-65
2022/06/27 09:57:13;;;;;;;10.00;9.10;;;22.50;99.90;;;;;;5032261;28;20182;-65
2022/06/27 09:59:39;;;;;;;11.13;9.57;;;22.70;99.90;;;;;;5032381;28;20273;-65
2022/06/27 10:02:06;;;;;;;10.65;9.68;;;22.80;99.90;;;;;;5032254;28;20278;-65
2022/06/27 10:04:32;;;;;;;10.98;9.93;;;23.30;99.90;;;;;;5031921;28;20572;-65
2022/06/27 10:07:01;;;;;;;10.82;9.82;;;23.70;99.90;;;;;;5032317;28;20194;-65
2022/06/27 10:09:29;;;;;;;11.20;10.05;;;24.30;99.90;;;;;;5031893;28;20556;-65
2022/06/27 10:12:25;;;;;;;10.32;9.43;;;24.50;99.90;;;;;;5032212;28;20224;-65
2022/06/27 10:15:09;;;;;;;10.20;9.40;;;24.80;99.90;;;;;;5031984;28;20188;-65
2022/06/27 10:17:39;;;;;;;10.00;9.00;;;25.00;99.90;;;;;;5031365;28;20180;-65
2022/06/27 10:20:11;;;;;;;10.43;9.25;;;25.20;99.90;;;;;;5031654;28;20251;-65
2022/06/27 10:22:38;;;;;;;10.88;9.73;;;25.30;99.90;;;;;;5052236;22;20222;-68
2022/06/27 10:25:25;;;;;;;11.15;10.13;;;25.00;99.90;;;;;;5051848;28;20539;-67
2022/06/27 10:28:16;;;;;;;12.73;9.60;;;24.50;99.90;;;;;;5057868;28;20178;-68
2022/06/27 10:30:45;;;;;;;11.27;10.13;;;24.00;99.90;;;;;;5069752;28;20528;-67
2022/06/27 10:33:22;;;;;;;12.93;10.60;;;23.50;99.90;;;;;;5058023;28;20199;-68
2022/06/27 10:35:54;;;;;;;13.27;11.70;;;23.00;99.90;;;;;;5037690;28;20187;-68
2022/06/27 10:38:21;;;;;;;11.88;10.70;;;22.80;99.90;;;;;;5042244;28;20183;-67
2022/06/27 10:40:47;;;;;;;13.70;12.25;;;22.60;99.90;;;;;;5052029;28;20182;-67
2022/06/27 10:43:42;;;;;;;13.23;11.95;;;22.50;99.90;;;;;;5042546;28;20199;-68
2022/06/27 10:46:11;;;;;;;15.23;13.77;;;22.50;99.90;;;;;;5031869;28;20203;-66
2022/06/27 10:48:37;;;;;;;12.82;11.55;;;22.40;99.90;;;;;;5043112;28;20186;-67
2022/06/27 10:51:18;;;;;;;14.10;12.57;;;22.30;99.90;;;;;;5051529;28;20209;-67
2022/06/27 10:53:45;;;;;;;13.90;12.60;;;22.20;99.90;;;;;;5039318;28;20230;-67
2022/06/27 10:56:31;;;;;;;13.73;11.73;;;22.30;99.90;;;;;;5029388;28;20241;-67
2022/06/27 10:59:02;;;;;;;17.03;12.83;;;22.30;99.90;;;;;;5031887;28;20175;-67
2022/06/27 11:01:28;;;;;;;14.90;13.43;;;22.10;99.90;;;;;;5030061;28;20175;-67
2022/06/27 11:03:54;;;;;;;20.17;12.40;;;21.90;99.90;;;;;;5044016;28;20199;-67
2022/06/27 11:06:21;;;;;;;13.83;12.50;;;21.80;99.90;;;;;;5051168;28;20645;-67
2022/06/27 11:08:49;;;;;;;13.50;12.07;;;21.90;99.90;;;;;;5039844;28;20176;-68
2022/06/27 11:11:26;;;;;;;13.53;11.17;;;21.90;99.90;;;;;;5031248;28;20207;-67
2022/06/27 11:13:59;;;;;;;14.87;13.33;;;21.90;99.90;;;;;;5042271;28;20221;-67
2022/06/27 11:16:25;;;;;;;12.27;11.07;;;21.90;99.90;;;;;;5051052;28;20666;-67
2022/06/27 11:18:53;;;;;;;12.97;11.27;;;21.80;99.90;;;;;;5040415;28;20210;-67
2022/06/27 11:21:27;;;;;;;11.93;10.83;;;21.80;99.90;;;;;;5031362;28;20178;-67
2022/06/27 11:24:04;;;;;;;12.20;11.00;;;21.90;99.90;;;;;;5041050;28;20206;-67
2022/06/27 11:26:43;;;;;;;15.27;13.83;;;21.90;99.90;;;;;;5051140;28;20205;-67
2022/06/27 11:32:07;;;;;;;13.03;11.80;;;22.20;99.90;;;;;;5034272;28;20229;-67
2022/06/27 11:34:34;;;;;;;13.60;12.27;;;22.50;99.90;;;;;;5050238;28;20174;-67
2022/06/27 11:37:12;;;;;;;13.83;12.37;;;22.60;99.90;;;;;;5055632;28;20174;-67
2022/06/27 11:39:38;;;;;;;13.98;11.88;;;22.80;99.90;;;;;;5039542;28;20210;-68
2022/06/27 11:42:12;;;;;;;13.52;12.13;;;23.10;99.90;;;;;;5034967;28;20187;-67
2022/06/27 11:45:01;;;;;;;14.85;13.35;;;23.50;99.90;;;;;;5049450;28;20266;-67
2022/06/27 11:47:28;;;;;;;13.43;12.13;;;24.00;99.90;;;;;;5054822;28;20228;-68
2022/06/27 11:50:02;;;;;;;12.20;10.52;;;24.50;99.90;;;;;;5038159;28;20208;-68
2022/06/27 11:52:36;;;;;;;11.95;10.02;;;25.00;99.90;;;;;;5034795;28;20653;-67
2022/06/27 11:55:13;;;;;;;11.20;9.80;;;25.40;99.90;;;;;;5052641;28;20205;-67
2022/06/27 11:57:48;;;;;;;12.35;9.32;;;25.90;99.90;;;;;;5055233;28;20568;-67
2022/06/27 12:00:22;;;;;;;10.48;9.55;;;26.20;99.90;;;;;;5035295;28;20179;-67
2022/06/27 12:03:08;;;;;;;11.13;10.07;;;26.50;99.90;;;;;;5033657;28;20283;-67
2022/06/27 12:05:36;;;;;;;12.55;9.43;;;26.80;99.90;;;;;;5014819;28;20199;-67
2022/06/27 12:08:11;;;;;;;9.50;8.50;;;26.90;99.90;;;;;;5013819;28;20187;-67
2022/06/27 12:13:41;;;;;;;13.98;8.80;;;27.10;99.90;;;;;;5022243;28;20328;-67
2022/06/27 12:16:09;;;;;;;9.40;8.13;;;27.00;99.90;;;;;;5053028;28;20163;-67
2022/06/27 12:18:41;;;;;;;10.50;7.82;;;26.80;99.90;;;;;;5049932;28;20175;-67
2022/06/27 12:21:07;;;;;;;7.75;6.93;;;26.40;99.90;;;;;;5034340;28;20175;-67
2022/06/27 12:23:33;;;;;;;7.90;6.88;;;25.90;99.90;;;;;;5037241;28;20218;-67
2022/06/27 12:25:59;;;;;;;9.55;8.48;;;25.50;99.90;;;;;;5054447;28;20171;-66
2022/06/27 12:28:25;;;;;;;9.65;8.75;;;25.00;99.90;;;;;;5038917;28;20382;-66
2022/06/27 12:30:51;;;;;;;10.55;9.32;;;24.70;99.90;;;;;;5034179;28;20206;-67
2022/06/27 12:33:16;;;;;;;11.18;8.35;;;24.40;99.90;;;;;;5046905;28;20195;-66
2022/06/27 12:35:42;;;;;;;7.05;6.38;;;24.40;99.90;;;;;;5053934;28;20694;-67
2022/06/27 12:38:08;;;;;;;9.95;6.60;;;24.30;99.90;;;;;;5042406;28;20193;-67
2022/06/27 12:40:35;;;;;;;9.25;6.85;;;24.60;99.90;;;;;;5033299;28;20225;-68
2022/06/27 12:43:01;;;;;;;9.75;7.10;;;25.20;99.90;;;;;;5047365;28;20203;-68
2022/06/27 12:45:27;;;;;;;10.40;7.72;;;25.80;99.90;;;;;;5052164;28;20179;-68
2022/06/27 12:47:53;;;;;;;8.68;7.88;;;26.30;99.90;;;;;;5039377;28;20530;-68